Terminal Aerodrome Forecast
Issued by NWS Indianapolis, IN

Home | Current Version | Previous Version | Text Only | Print | Product List | Glossary On
Versions: 1 2 3 4 5 6 7 8 9 10 11 12 13 14 15 16 17 18 19 20 21 22 23 24 25 26 27
959
FTUS43 KIND 060818 AAA
TAFIND
TAF AMD
KIND 060818Z 0608/0712 VRB03KT P6SM SCT150
     FM061200 19006KT P6SM BKN080
     FM061600 24007KT P6SM BKN050=

USA.gov is the U.S. government's official web portal to all federal, state and local government web resources and services.